createdAt,value
2023-03-04T00:04:46.204Z,2.24
2023-03-04T00:09:45.545Z,2.19
2023-03-04T00:14:42.039Z,2.15
2023-03-04T00:19:38.495Z,2.18
2023-03-04T00:24:35.205Z,2.21
2023-03-04T00:29:31.582Z,2.27
2023-03-04T00:34:27.961Z,2.29
2023-03-04T00:39:24.822Z,2.39
2023-03-04T00:44:21.515Z,2.37
2023-03-04T00:49:17.888Z,2.37
2023-03-04T00:54:14.273Z,2.42
2023-03-04T00:59:10.644Z,2.49
2023-03-04T01:04:07.124Z,2.60
2023-03-04T01:09:03.704Z,2.65
2023-03-04T01:14:00.141Z,2.72
2023-03-04T01:18:56.500Z,2.74
2023-03-04T01:23:52.870Z,2.77
2023-03-04T01:28:49.265Z,2.79
2023-03-04T01:33:45.722Z,2.87
2023-03-04T01:38:42.182Z,2.95
2023-03-04T01:43:39.030Z,3.01
2023-03-04T01:48:38.108Z,3.05
2023-03-04T01:53:34.539Z,3.12
2023-03-04T01:58:32.645Z,3.13
2023-03-04T02:03:29.192Z,3.11
2023-03-04T02:08:25.701Z,3.14
2023-03-04T02:13:22.138Z,3.13
2023-03-04T02:18:21.621Z,3.13
2023-03-04T02:23:35.325Z,3.19
2023-03-04T02:28:31.749Z,3.21
2023-03-04T02:33:28.326Z,3.22
2023-03-04T02:38:25.075Z,3.19
2023-03-04T02:43:21.615Z,3.16
2023-03-04T02:48:21.804Z,3.11
2023-03-04T02:53:20.652Z,3.20
2023-03-04T02:58:17.039Z,3.25
2023-03-04T03:03:13.500Z,3.25
2023-03-04T03:08:09.925Z,3.22
2023-03-04T03:13:06.325Z,3.21
2023-03-04T03:18:02.708Z,3.20
2023-03-04T03:22:59.161Z,3.20
2023-03-04T03:27:55.625Z,3.18
2023-03-04T03:32:52.052Z,3.17
2023-03-04T03:37:49.080Z,3.18
2023-03-04T03:42:45.513Z,3.18
2023-03-04T03:47:41.941Z,3.22
2023-03-04T03:52:38.416Z,3.20
2023-03-04T03:57:34.811Z,3.19
2023-03-04T04:02:31.289Z,3.21
2023-03-04T04:07:27.730Z,3.17
2023-03-04T04:12:24.104Z,3.15
2023-03-04T04:17:20.505Z,3.14
2023-03-04T04:22:19.481Z,3.19
2023-03-04T04:27:15.929Z,3.19
2023-03-04T04:32:13.254Z,3.19
2023-03-04T04:37:09.718Z,3.18
2023-03-04T04:42:06.084Z,3.19
2023-03-04T04:47:02.428Z,3.19
2023-03-04T04:51:58.945Z,3.18
2023-03-04T04:56:55.468Z,3.19
2023-03-04T05:01:52.002Z,3.21
2023-03-04T05:06:48.403Z,3.19
2023-03-04T05:11:44.863Z,3.20
2023-03-04T05:16:41.263Z,3.18
2023-03-04T05:21:37.698Z,3.20
2023-03-04T05:26:34.132Z,3.19
2023-03-04T05:31:30.840Z,3.19
2023-03-04T05:36:27.335Z,3.18
2023-03-04T05:41:23.750Z,3.19
2023-03-04T05:46:26.340Z,3.12
2023-03-04T05:51:23.316Z,3.10
2023-03-04T05:56:20.614Z,3.10
2023-03-04T06:01:17.432Z,3.03
2023-03-04T06:06:13.903Z,2.97
2023-03-04T06:11:10.314Z,2.91
2023-03-04T06:16:07.238Z,2.87
2023-03-04T06:21:03.814Z,2.82
2023-03-04T06:26:01.517Z,2.81
2023-03-04T06:30:58.197Z,2.81
2023-03-04T06:35:56.983Z,2.83
2023-03-04T06:40:56.713Z,2.86
2023-03-04T06:45:53.959Z,2.85
2023-03-04T06:50:50.344Z,2.83
2023-03-04T06:55:47.603Z,2.86
2023-03-04T07:00:45.038Z,2.84
2023-03-04T07:05:42.713Z,2.89
2023-03-04T07:10:39.169Z,2.93
2023-03-04T07:15:36.226Z,2.97
2023-03-04T07:20:32.695Z,3.01
2023-03-04T07:25:29.149Z,3.07
2023-03-04T07:30:25.564Z,3.09
2023-03-04T07:35:21.915Z,3.14
2023-03-04T07:40:18.515Z,3.12
2023-03-04T07:45:14.878Z,3.13
2023-03-04T07:50:12.633Z,3.07
2023-03-04T07:55:10.768Z,3.09
2023-03-04T08:00:08.000Z,3.05
2023-03-04T08:05:04.754Z,3.05
2023-03-04T08:10:01.142Z,3.11
2023-03-04T08:14:57.504Z,3.15
2023-03-04T08:19:53.873Z,3.33
2023-03-04T08:24:50.374Z,3.13
2023-03-04T08:29:46.737Z,3.06
2023-03-04T08:34:43.124Z,3.06
2023-03-04T08:39:39.487Z,3.10
2023-03-04T08:44:35.851Z,3.15
2023-03-04T08:49:32.187Z,3.11
2023-03-04T08:54:28.543Z,3.10
2023-03-04T08:59:25.238Z,3.15
2023-03-04T09:04:21.686Z,3.15
2023-03-04T09:09:18.061Z,3.27
2023-03-04T09:14:14.424Z,3.24
2023-03-04T09:19:10.868Z,3.22
2023-03-04T09:24:07.410Z,3.25
2023-03-04T09:29:04.767Z,3.22
2023-03-04T09:34:01.136Z,3.25
2023-03-04T09:39:01.742Z,3.40
2023-03-04T09:43:58.208Z,3.55
2023-03-04T09:48:56.386Z,3.38
2023-03-04T09:54:27.120Z,3.49
2023-03-04T09:59:41.524Z,3.54
2023-03-04T10:04:47.135Z,3.56
2023-03-04T10:09:53.803Z,3.50
2023-03-04T10:14:55.857Z,3.51
2023-03-04T10:20:06.895Z,3.52
2023-03-04T10:25:20.806Z,3.66
2023-03-04T10:30:32.456Z,3.63
2023-03-04T10:35:36.598Z,3.78
2023-03-04T10:40:39.258Z,3.90
2023-03-04T10:45:40.276Z,4.06
2023-03-04T10:50:36.658Z,4.14
2023-03-04T10:55:44.929Z,4.11
2023-03-04T11:00:41.704Z,4.03
2023-03-04T11:05:38.067Z,4.13
2023-03-04T11:10:37.239Z,4.60
2023-03-04T11:15:50.558Z,4.75
2023-03-04T11:20:49.374Z,5.03
2023-03-04T11:25:49.836Z,5.08
2023-03-04T11:30:50.234Z,5.09
2023-03-04T11:36:25.788Z,5.03
2023-03-04T11:41:30.584Z,4.88
2023-03-04T11:46:42.378Z,4.87
2023-03-04T11:51:45.348Z,4.88
2023-03-04T11:56:52.365Z,4.94
2023-03-04T12:02:08.098Z,5.12
2023-03-04T12:07:22.368Z,5.34
2023-03-04T12:12:33.745Z,5.44
2023-03-04T12:18:00.849Z,5.42
2023-03-04T12:23:13.448Z,5.49
2023-03-04T12:28:54.953Z,5.68
2023-03-04T12:34:00.464Z,5.84
2023-03-04T12:38:56.770Z,5.79
2023-03-04T12:43:58.635Z,5.75
2023-03-04T12:49:18.023Z,6.02
2023-03-04T12:54:26.161Z,5.87
2023-03-04T12:59:26.548Z,6.03
2023-03-04T13:04:53.137Z,6.26
2023-03-04T13:10:13.179Z,5.94
2023-03-04T13:15:09.504Z,6.21
2023-03-04T13:20:33.770Z,6.53
2023-03-04T13:25:30.319Z,6.08
2023-03-04T13:30:32.820Z,5.94
2023-03-04T13:35:48.018Z,6.19
2023-03-04T13:40:44.629Z,6.02
2023-03-04T13:45:41.027Z,5.79
2023-03-04T16:21:43.026Z,4.54
2023-03-04T16:26:39.442Z,4.38
2023-03-04T16:31:36.006Z,4.20
2023-03-04T16:36:32.655Z,3.92
2023-03-04T16:41:32.856Z,3.83
2023-03-04T16:46:30.186Z,3.82
2023-03-04T16:51:27.362Z,3.87
2023-03-04T16:56:23.968Z,3.84
2023-03-04T17:01:23.380Z,3.72
2023-03-04T17:06:20.836Z,3.69
2023-03-04T17:11:20.273Z,3.58
2023-03-04T17:16:17.113Z,3.52
2023-03-04T17:21:18.095Z,3.46
2023-03-04T17:26:15.596Z,3.46
2023-03-04T17:31:14.052Z,3.43
2023-03-04T17:36:12.113Z,3.36
2023-03-04T17:41:15.824Z,3.37
2023-03-04T17:46:14.434Z,3.34
2023-03-04T17:51:11.779Z,3.27
2023-03-04T17:56:10.734Z,3.24
2023-03-04T18:01:16.875Z,3.19
2023-03-04T18:06:13.336Z,3.25
2023-03-04T18:11:10.228Z,3.22
2023-03-04T18:16:08.872Z,3.19
2023-03-04T18:21:05.882Z,3.18
2023-03-04T18:26:04.297Z,3.17
2023-03-04T18:31:01.244Z,3.11
2023-03-04T18:36:02.914Z,3.10
2023-03-04T18:41:01.324Z,3.06
2023-03-04T18:46:02.065Z,3.10
2023-03-04T18:50:58.688Z,3.07
2023-03-04T18:56:01.476Z,3.01
2023-03-04T19:00:59.649Z,2.99
2023-03-04T19:05:56.110Z,2.95
2023-03-04T19:10:52.481Z,2.93
2023-03-04T19:15:53.551Z,2.95
2023-03-04T19:20:50.172Z,2.95
2023-03-04T19:25:46.802Z,2.94
2023-03-04T19:30:43.196Z,2.90
2023-03-04T19:35:41.679Z,2.91
2023-03-04T19:40:40.451Z,2.90
2023-03-04T19:45:37.208Z,2.89
2023-03-04T19:50:33.692Z,2.88
2023-03-04T19:55:30.124Z,2.86
2023-03-04T20:00:26.571Z,2.82
2023-03-04T20:05:22.979Z,2.73
2023-03-04T20:10:19.669Z,2.72
2023-03-04T20:15:16.170Z,2.68
2023-03-04T20:20:12.600Z,2.70
2023-03-04T20:25:09.078Z,2.67
2023-03-04T20:30:05.956Z,2.68
2023-03-04T20:35:02.386Z,2.68
2023-03-04T20:39:58.981Z,2.66
2023-03-04T20:44:55.429Z,2.69
2023-03-04T20:49:51.815Z,2.65
2023-03-04T20:54:48.230Z,2.62
2023-03-04T20:59:44.614Z,2.61
2023-03-04T21:04:41.260Z,2.58
2023-03-04T21:09:37.623Z,2.56
2023-03-04T21:14:34.042Z,2.53
2023-03-04T21:19:33.617Z,2.50
2023-03-04T21:24:35.525Z,2.48
2023-03-04T21:29:32.519Z,2.47
2023-03-04T21:34:34.629Z,2.33
2023-03-04T21:39:31.951Z,2.26
2023-03-04T21:44:38.524Z,2.22
2023-03-04T21:49:44.584Z,2.26
2023-03-04T21:54:41.009Z,2.28
2023-03-04T21:59:38.642Z,2.22
2023-03-04T22:04:35.462Z,2.16
2023-03-04T22:09:32.387Z,2.12
2023-03-04T22:14:29.508Z,2.04
2023-03-04T22:19:30.356Z,2.01
2023-03-04T22:24:26.832Z,2.00
2023-03-04T22:29:23.200Z,1.98
2023-03-04T22:34:19.631Z,1.98
2023-03-04T22:39:21.104Z,1.95
2023-03-04T22:44:17.679Z,1.93
2023-03-04T22:49:14.580Z,1.90
2023-03-04T22:54:16.425Z,1.89
2023-03-04T22:59:13.601Z,1.90
2023-03-04T23:04:09.991Z,1.87
2023-03-04T23:09:06.789Z,1.85
2023-03-04T23:14:06.875Z,1.85
2023-03-04T23:19:05.080Z,1.83
2023-03-04T23:24:03.299Z,1.84
2023-03-04T23:29:01.601Z,1.83
2023-03-04T23:33:59.144Z,1.85
2023-03-04T23:38:56.308Z,1.83
2023-03-04T23:43:54.491Z,1.84
2023-03-04T23:48:52.460Z,1.82
2023-03-04T23:53:48.853Z,1.80
2023-03-04T23:58:46.235Z,1.80
